Time;durP1;ratioP1;P1;durP2;ratioP2;P2;SDS_P1;SDS_P2;PMS_P1;PMS_P2;Temp;Humidity;BMP_temperature;BMP_pressure;BME280_temperature;BME280_humidity;BME280_pressure;Samples;Min_cycle;Max_cycle;Signal;HPM_P1;HPM_P2
2023/08/13 00:00:18;;;;;;;12.35;5.20;;;;;;;22.32;90.93;100164.97;6125720;23;20024;-85
2023/08/13 00:02:45;;;;;;;20.85;5.88;;;;;;;22.32;91.41;100168.50;6149630;23;21555;-86
2023/08/13 00:05:12;;;;;;;13.40;5.55;;;;;;;22.30;91.22;100159.75;6150463;23;20017;-85
2023/08/13 00:07:38;;;;;;;22.63;6.60;;;;;;;22.32;91.12;100154.97;6149515;23;20075;-86
2023/08/13 00:10:05;;;;;;;13.02;5.70;;;;;;;22.28;91.09;100156.41;6174400;23;20021;-85
2023/08/13 00:12:32;;;;;;;15.88;6.30;;;;;;;22.26;91.86;100155.81;6125228;23;20070;-85
2023/08/13 00:15:00;;;;;;;19.20;6.63;;;;;;;22.30;91.96;100167.03;6149546;23;20047;-85
2023/08/13 00:17:27;;;;;;;20.77;7.35;;;;;;;22.27;92.38;100159.34;6173628;23;20032;-86
2023/08/13 00:19:54;;;;;;;12.75;6.57;;;;;;;22.26;92.21;100153.09;6150506;23;20076;-85
2023/08/13 00:22:21;;;;;;;59.72;8.07;;;;;;;22.25;92.79;100151.41;6124853;23;20027;-86
2023/08/13 00:24:51;;;;;;;22.45;7.32;;;;;;;22.27;93.28;100157.47;6150241;23;20025;-86
2023/08/13 00:27:18;;;;;;;18.10;7.05;;;;;;;22.25;93.36;100159.53;6125641;23;20100;-86
2023/08/13 00:29:44;;;;;;;11.00;5.80;;;;;;;22.23;93.30;100156.19;6148353;23;20025;-86
2023/08/13 00:32:11;;;;;;;8.90;6.30;;;;;;;22.23;93.52;100156.19;6148836;23;20027;-86
2023/08/13 00:34:39;;;;;;;14.63;6.50;;;;;;;22.22;93.77;100162.66;6124513;23;20017;-86
2023/08/13 00:37:06;;;;;;;13.45;6.57;;;;;;;22.24;93.38;100155.19;6150724;23;20021;-86
2023/08/13 00:39:33;;;;;;;14.38;6.55;;;;;;;22.23;92.80;100148.09;6125873;23;20028;-87
2023/08/13 00:41:59;;;;;;;10.13;5.40;;;;;;;22.21;92.45;100143.91;6126885;23;20016;-86
2023/08/13 00:44:27;;;;;;;8.45;5.95;;;;;;;22.21;91.86;100152.88;6151588;23;20096;-86
2023/08/13 00:46:54;;;;;;;10.70;5.93;;;;;;;22.20;91.84;100169.31;6126930;23;20025;-86
2023/08/13 00:49:21;;;;;;;11.68;5.65;;;;;;;22.19;91.80;100163.06;6127717;23;20019;-86
2023/08/13 00:51:48;;;;;;;9.77;6.30;;;;;;;22.14;92.05;100160.09;6151686;23;20025;-85
2023/08/13 00:54:14;;;;;;;28.17;7.13;;;;;;;22.15;92.01;100158.22;6127004;23;20441;-85
2023/08/13 00:56:41;;;;;;;23.90;6.80;;;;;;;22.15;92.12;100150.13;6127161;23;20021;-85
2023/08/13 00:59:08;;;;;;;11.85;6.25;;;;;;;22.11;91.94;100152.41;6151601;23;20025;-85
2023/08/13 01:01:35;;;;;;;7.55;5.90;;;;;;;22.08;92.09;100153.66;6150763;23;20025;-86
2023/08/13 01:04:02;;;;;;;42.55;6.75;;;;;;;22.07;91.99;100161.94;6152416;23;20024;-85
2023/08/13 01:06:34;;;;;;;12.27;6.22;;;;;;;22.07;92.11;100159.25;6150748;23;20053;-85
2023/08/13 01:09:47;;;;;;;25.02;6.18;;;;;;;21.93;92.36;100163.78;6126246;23;20479;-86
2023/08/13 01:12:44;;;;;;;32.50;6.13;;;;;;;21.96;92.63;100162.56;6176990;23;20025;-85
2023/08/13 01:15:11;;;;;;;21.55;5.50;;;;;;;22.00;92.52;100159.22;6151172;23;20024;-85
2023/08/13 01:17:38;;;;;;;12.32;5.47;;;;;;;21.99;92.58;100160.25;6150896;23;20021;-86
2023/08/13 01:20:06;;;;;;;4.90;4.40;;;;;;;21.99;92.50;100159.44;6152215;23;20318;-86
2023/08/13 01:22:38;;;;;;;6.15;4.38;;;;;;;21.96;92.42;100157.13;6126183;23;20027;-85
2023/08/13 01:25:08;;;;;;;5.10;4.20;;;;;;;21.98;92.35;100160.44;6151866;23;20032;-85
2023/08/13 01:27:42;;;;;;;5.45;4.43;;;;;;;21.94;92.58;100161.91;6126290;23;20020;-86
2023/08/13 01:30:21;;;;;;;5.00;3.70;;;;;;;21.92;92.47;100166.69;6151464;23;20040;-86
2023/08/13 01:33:00;;;;;;;6.78;4.63;;;;;;;21.92;92.56;100164.81;6127065;23;20061;-85
2023/08/13 01:35:28;;;;;;;3.88;3.58;;;;;;;21.96;92.57;100170.66;6151062;23;20017;-85
2023/08/13 01:37:55;;;;;;;11.43;4.28;;;;;;;21.93;92.50;100169.19;6151389;23;20079;-85
2023/08/13 01:40:23;;;;;;;11.50;4.20;;;;;;;21.95;92.04;100168.97;6150975;23;20024;-86
2023/08/13 01:42:50;;;;;;;12.52;4.80;;;;;;;21.92;91.80;100164.81;6127148;23;20021;-86
2023/08/13 01:45:17;;;;;;;5.15;4.47;;;;;;;21.91;91.43;100165.03;6151700;23;20028;-85
2023/08/13 01:47:44;;;;;;;22.83;5.20;;;;;;;21.90;91.92;100166.88;6150326;23;20036;-85
2023/08/13 01:50:11;;;;;;;5.53;4.32;;;;;;;21.91;92.17;100167.72;6103303;23;20017;-86
2023/08/13 01:52:37;;;;;;;8.73;4.45;;;;;;;21.90;92.22;100158.75;6150431;23;20020;-85
2023/08/13 01:55:05;;;;;;;7.40;4.93;;;;;;;21.92;92.68;100155.88;6175851;23;20103;-86
2023/08/13 01:57:32;;;;;;;6.13;5.43;;;;;;;21.91;92.71;100157.75;6150890;23;20108;-85
2023/08/13 01:59:59;;;;;;;9.20;4.82;;;;;;;21.87;92.71;100162.69;6126508;23;20040;-85
2023/08/13 02:02:26;;;;;;;7.15;3.97;;;;;;;21.88;92.17;100169.78;6101957;23;20311;-86
2023/08/13 02:04:52;;;;;;;6.40;4.13;;;;;;;21.89;92.46;100160.63;6127252;23;20017;-86
2023/08/13 02:07:19;;;;;;;8.52;4.40;;;;;;;21.86;92.40;100157.50;6176008;23;20021;-86
2023/08/13 02:09:46;;;;;;;7.45;4.38;;;;;;;21.86;91.97;100160.22;6126243;23;20033;-87
2023/08/13 02:12:13;;;;;;;8.50;5.18;;;;;;;21.85;92.02;100159.38;6151325;23;20033;-87
2023/08/13 02:14:40;;;;;;;5.35;3.95;;;;;;;21.85;91.84;100162.09;6125817;23;20025;-86
2023/08/13 02:17:12;;;;;;;6.45;4.18;;;;;;;21.82;91.99;100151.66;6126846;23;20017;-86
2023/08/13 02:19:42;;;;;;;6.68;5.28;;;;;;;21.83;92.05;100157.88;6102072;23;20441;-87
2023/08/13 02:22:09;;;;;;;6.82;4.93;;;;;;;21.85;91.82;100155.81;6126808;23;20032;-87
2023/08/13 02:24:36;;;;;;;8.05;4.82;;;;;;;21.84;91.71;100151.47;6102441;23;20052;-86
2023/08/13 02:27:03;;;;;;;5.10;4.60;;;;;;;21.84;91.78;100154.16;6127129;23;20028;-86
2023/08/13 02:29:30;;;;;;;6.20;5.00;;;;;;;21.82;91.86;100151.66;6126216;23;20029;-87
2023/08/13 02:31:57;;;;;;;5.00;4.50;;;;;;;21.81;91.59;100154.59;6126741;23;20048;-87
2023/08/13 02:34:23;;;;;;;7.57;5.95;;;;;;;21.81;91.43;100152.72;6126548;23;20028;-86
2023/08/13 02:36:51;;;;;;;12.30;4.93;;;;;;;21.80;91.81;100159.13;6151558;23;20036;-86
2023/08/13 02:39:17;;;;;;;7.90;5.20;;;;;;;21.77;91.90;100164.94;6151120;23;20017;-86
2023/08/13 02:41:44;;;;;;;9.45;5.88;;;;;;;21.76;91.91;100162.47;6101759;23;20024;-86
2023/08/13 02:44:11;;;;;;;9.00;5.20;;;;;;;21.75;91.96;100150.78;6151589;23;20028;-86
2023/08/13 02:46:38;;;;;;;8.77;5.22;;;;;;;21.75;92.46;100145.38;6175360;23;20095;-86
2023/08/13 02:49:04;;;;;;;10.95;5.40;;;;;;;21.76;92.36;100149.78;6126164;23;20031;-86
2023/08/13 02:51:31;;;;;;;8.20;5.50;;;;;;;21.75;92.49;100156.19;6126597;23;20037;-86
2023/08/13 02:53:58;;;;;;;9.43;4.97;;;;;;;21.73;92.44;100158.28;6150912;23;20025;-86
2023/08/13 02:56:25;;;;;;;11.02;5.00;;;;;;;21.72;91.86;100153.91;6150351;23;20330;-87
2023/08/13 02:58:51;;;;;;;7.93;5.30;;;;;;;21.72;92.06;100162.00;6150906;23;20449;-86
2023/08/13 03:01:18;;;;;;;14.35;5.43;;;;;;;21.72;92.15;100162.00;6150327;23;20384;-86
2023/08/13 03:03:48;;;;;;;7.38;5.13;;;;;;;21.69;92.11;100162.41;6101672;23;20025;-86
2023/08/13 03:06:20;;;;;;;8.75;5.20;;;;;;;21.72;91.89;100155.78;6126998;23;20016;-86
2023/08/13 03:08:47;;;;;;;7.15;5.45;;;;;;;21.70;92.18;100157.84;6149097;23;20140;-86
2023/08/13 03:11:14;;;;;;;7.43;5.20;;;;;;;21.66;92.02;100158.25;6150856;23;20348;-86
2023/08/13 03:13:41;;;;;;;19.10;5.45;;;;;;;21.68;92.33;100161.59;6149685;23;20040;-86
2023/08/13 03:16:09;;;;;;;8.75;5.50;;;;;;;21.67;91.98;100161.78;6125431;23;20021;-86
2023/08/13 03:18:37;;;;;;;12.38;6.53;;;;;;;21.65;92.35;100163.84;6149727;23;20028;-86
2023/08/13 03:21:10;;;;;;;14.20;5.57;;;;;;;21.65;91.84;100161.13;6127686;23;20027;-86
2023/08/13 03:23:37;;;;;;;16.20;6.40;;;;;;;21.65;92.10;100153.03;6125432;23;20088;-85
2023/08/13 03:26:04;;;;;;;9.27;6.20;;;;;;;21.64;92.02;100152.19;6150351;23;20029;-86
2023/08/13 03:28:32;;;;;;;13.27;6.30;;;;;;;21.63;91.63;100152.41;6123763;23;20029;-87
2023/08/13 03:31:06;;;;;;;9.07;6.03;;;;;;;21.62;91.87;100148.03;6150470;23;20032;-86
2023/08/13 03:33:42;;;;;;;8.45;5.47;;;;;;;21.62;91.83;100151.56;6173964;23;20048;-86
2023/08/13 03:36:09;;;;;;;7.28;5.40;;;;;;;21.60;91.88;100150.94;6150968;23;20075;-87
2023/08/13 03:38:36;;;;;;;10.95;5.40;;;;;;;21.59;91.74;100151.13;6149041;23;20139;-86
2023/08/13 03:41:03;;;;;;;7.00;5.18;;;;;;;21.57;91.84;100147.78;6174531;23;20020;-87
2023/08/13 03:43:30;;;;;;;12.18;6.25;;;;;;;21.57;91.81;100159.44;6176652;23;20776;-87
2023/08/13 03:45:57;;;;;;;6.53;5.70;;;;;;;21.57;91.86;100156.72;6149625;23;20345;-86
2023/08/13 03:48:24;;;;;;;8.85;5.78;;;;;;;21.59;91.88;100157.38;6100367;23;20032;-86
2023/08/13 03:50:51;;;;;;;9.55;6.20;;;;;;;21.56;91.99;100146.97;6150562;23;20021;-86
2023/08/13 03:53:22;;;;;;;9.88;6.65;;;;;;;21.56;92.07;100154.25;6125653;23;20063;-86
2023/08/13 03:55:50;;;;;;;7.90;6.20;;;;;;;21.56;92.66;100156.94;6126127;23;20027;-86
2023/08/13 03:58:17;;;;;;;10.05;5.43;;;;;;;21.56;92.33;100148.84;6149585;23;20456;-87
2023/08/13 04:00:44;;;;;;;7.00;5.95;;;;;;;21.57;92.47;100150.50;6150139;23;20024;-87
2023/08/13 04:03:11;;;;;;;10.73;5.20;;;;;;;21.56;92.41;100156.94;6174421;23;20025;-86
2023/08/13 04:05:52;;;;;;;6.72;5.20;;;;;;;21.53;92.57;100151.94;6152585;23;20457;-87
2023/08/13 04:08:19;;;;;;;7.38;5.53;;;;;;;21.56;92.20;100154.25;6125535;23;20059;-87
2023/08/13 04:10:46;;;;;;;7.15;5.30;;;;;;;21.54;92.26;100145.50;6150214;23;20037;-87
2023/08/13 04:13:13;;;;;;;9.38;5.45;;;;;;;21.58;92.35;100146.78;6126385;23;20028;-87
2023/08/13 04:15:39;;;;;;;5.78;4.53;;;;;;;21.55;92.23;100153.41;6176247;23;20017;-87
2023/08/13 04:18:07;;;;;;;4.80;4.40;;;;;;;21.54;92.22;100154.44;6152778;23;20437;-86
2023/08/13 04:20:39;;;;;;;7.20;4.70;;;;;;;21.52;91.86;100153.78;6151087;23;20445;-86
2023/08/13 04:23:07;;;;;;;7.85;4.80;;;;;;;21.54;92.14;100159.00;6176738;23;20045;-85
2023/08/13 04:25:36;;;;;;;5.93;4.28;;;;;;;21.54;92.59;100153.59;6127504;23;20048;-86
2023/08/13 04:28:03;;;;;;;6.70;5.10;;;;;;;21.51;92.56;100149.44;6126680;23;20103;-87
2023/08/13 04:30:33;;;;;;;7.47;4.57;;;;;;;21.53;92.45;100147.38;6151825;23;20017;-86
2023/08/13 04:33:01;;;;;;;6.38;4.97;;;;;;;21.52;92.09;100151.09;6127458;23;20021;-86
2023/08/13 04:35:30;;;;;;;6.03;5.22;;;;;;;21.52;92.49;100148.38;6176156;23;20037;-86
2023/08/13 04:37:57;;;;;;;6.63;4.90;;;;;;;21.52;92.61;100152.97;6176643;23;20025;-87
2023/08/13 04:40:24;;;;;;;7.55;5.00;;;;;;;21.51;92.60;100162.13;6151482;23;20120;-86
2023/08/13 04:42:52;;;;;;;5.80;4.40;;;;;;;21.53;92.48;100152.78;6128085;23;20480;-87
2023/08/13 04:45:20;;;;;;;5.80;4.80;;;;;;;21.51;92.75;100151.31;6176095;23;20025;-86
2023/08/13 04:47:48;;;;;;;8.95;4.93;;;;;;;21.51;92.58;100145.91;6150765;23;20031;-86
2023/08/13 04:50:15;;;;;;;8.20;4.93;;;;;;;21.51;92.80;100144.03;6151887;23;20477;-86
2023/08/13 04:52:42;;;;;;;6.68;4.65;;;;;;;21.51;92.79;100141.31;6176013;23;20017;-86
2023/08/13 04:55:10;;;;;;;6.68;4.80;;;;;;;21.49;92.71;100138.00;6176032;23;20021;-87
2023/08/13 04:57:37;;;;;;;7.43;5.18;;;;;;;21.49;92.61;100146.09;6127160;23;20029;-86
2023/08/13 05:00:05;;;;;;;6.68;4.97;;;;;;;21.50;92.46;100145.06;6127445;23;20016;-87
2023/08/13 05:02:38;;;;;;;6.38;4.70;;;;;;;21.46;92.75;100147.31;6151531;23;20519;-86
2023/08/13 05:05:06;;;;;;;5.25;4.70;;;;;;;21.50;92.94;100149.63;6176585;23;20044;-87
2023/08/13 05:07:33;;;;;;;5.25;4.40;;;;;;;21.51;93.05;100145.91;6151367;23;20025;-86
2023/08/13 05:10:02;;;;;;;9.82;4.95;;;;;;;21.52;93.29;100148.38;6152307;23;20025;-87
2023/08/13 05:12:29;;;;;;;9.20;5.22;;;;;;;21.50;93.23;100161.28;6175386;23;20091;-86
2023/08/13 05:14:57;;;;;;;6.25;4.68;;;;;;;21.50;92.93;100160.44;6151060;23;21051;-86
2023/08/13 05:17:25;;;;;;;5.47;4.78;;;;;;;21.50;92.75;100161.28;6151082;23;20088;-86
2023/08/13 05:19:52;;;;;;;8.40;4.45;;;;;;;21.51;92.85;100164.81;6126957;23;20023;-86
2023/08/13 05:22:19;;;;;;;5.15;4.13;;;;;;;21.51;92.83;100162.94;6126002;23;20041;-86
2023/08/13 05:24:47;;;;;;;5.53;4.10;;;;;;;21.49;93.20;100161.47;6126574;23;20025;-86
2023/08/13 05:27:15;;;;;;;4.00;3.60;;;;;;;21.51;93.31;100160.25;6152059;23;20092;-87
2023/08/13 05:29:43;;;;;;;5.22;4.05;;;;;;;21.51;93.92;100165.66;6175170;23;20028;-86
2023/08/13 05:32:10;;;;;;;4.32;3.92;;;;;;;21.52;93.42;100161.91;6152122;23;20089;-86
2023/08/13 05:34:36;;;;;;;10.30;5.07;;;;;;;21.53;93.95;100169.00;6150613;23;20045;-86
2023/08/13 05:37:03;;;;;;;13.13;5.68;;;;;;;21.53;93.63;100169.00;6151303;23;20025;-86
2023/08/13 05:39:31;;;;;;;15.40;6.13;;;;;;;21.54;93.72;100167.13;6151656;23;20032;-86
2023/08/13 05:41:58;;;;;;;13.40;7.03;;;;;;;21.53;94.04;100170.88;6150691;23;20036;-86
2023/08/13 05:44:25;;;;;;;15.50;6.20;;;;;;;21.55;94.14;100177.75;6175765;23;20032;-86
2023/08/13 05:46:52;;;;;;;16.55;6.65;;;;;;;21.55;94.50;100172.34;6151618;23;20024;-86
2023/08/13 05:49:20;;;;;;;16.73;6.95;;;;;;;21.58;94.24;100173.81;6126799;23;20525;-87
2023/08/13 05:51:48;;;;;;;17.40;6.40;;;;;;;21.61;94.63;100165.28;6150719;23;20075;-86
2023/08/13 05:54:15;;;;;;;16.75;6.25;;;;;;;21.62;94.89;100169.66;6176632;23;20025;-86
2023/08/13 05:56:42;;;;;;;18.35;6.68;;;;;;;21.63;94.74;100174.03;6175144;23;20345;-86
2023/08/13 05:59:09;;;;;;;11.82;7.00;;;;;;;21.64;94.70;100168.41;6175484;23;20020;-87
2023/08/13 06:01:36;;;;;;;15.45;6.13;;;;;;;21.63;94.70;100172.16;6150590;23;20029;-86
2023/08/13 06:04:03;;;;;;;16.75;6.72;;;;;;;21.64;94.78;100181.94;6127048;23;20025;-86
2023/08/13 06:06:30;;;;;;;17.25;6.53;;;;;;;21.66;94.95;100174.47;6101890;23;20087;-85
2023/08/13 06:08:56;;;;;;;11.18;5.75;;;;;;;21.66;95.29;100165.53;6175499;23;20079;-87
2023/08/13 06:11:23;;;;;;;10.77;6.28;;;;;;;21.66;95.51;100168.22;6150869;23;20041;-86
2023/08/13 06:13:50;;;;;;;10.82;6.47;;;;;;;21.66;95.68;100166.34;6125968;23;20495;-86
2023/08/13 06:16:17;;;;;;;13.27;6.20;;;;;;;21.69;95.33;100178.63;6175526;23;20433;-86
2023/08/13 06:18:44;;;;;;;13.02;5.13;;;;;;;21.68;95.32;100175.09;6175293;23;20025;-86
2023/08/13 06:21:11;;;;;;;11.02;5.70;;;;;;;21.67;95.27;100168.00;6150728;23;20020;-86
2023/08/13 06:23:38;;;;;;;12.23;5.55;;;;;;;21.71;95.31;100171.16;6151260;23;20088;-87
2023/08/13 06:26:06;;;;;;;11.68;5.63;;;;;;;21.73;95.55;100171.81;6150423;23;20453;-87
2023/08/13 06:28:34;;;;;;;12.20;5.63;;;;;;;21.74;95.52;100173.47;6125273;23;20024;-87
2023/08/13 06:31:02;;;;;;;12.52;6.10;;;;;;;21.74;95.71;100168.06;6151125;23;20118;-86
2023/08/13 06:33:28;;;;;;;10.98;6.13;;;;;;;21.73;95.78;100171.81;6174014;23;20088;-87
2023/08/13 06:35:55;;;;;;;12.02;6.55;;;;;;;21.77;95.91;100172.22;6175165;23;20029;-87
2023/08/13 06:38:24;;;;;;;12.95;6.60;;;;;;;21.78;95.93;100173.88;6150307;23;20318;-86
2023/08/13 06:40:51;;;;;;;13.95;7.25;;;;;;;21.80;95.76;100171.81;6150975;23;20028;-86
2023/08/13 06:43:17;;;;;;;12.35;7.03;;;;;;;21.78;96.20;100169.34;6176874;23;20023;-87
2023/08/13 06:45:46;;;;;;;11.25;6.63;;;;;;;21.81;95.96;100182.44;6173568;23;20396;-86
2023/08/13 06:48:12;;;;;;;12.18;6.57;;;;;;;21.78;96.02;100182.84;6125916;23;20025;-86
2023/08/13 06:50:39;;;;;;;12.80;7.30;;;;;;;21.83;96.48;100185.78;6149846;23;20024;-87
2023/08/13 06:53:06;;;;;;;14.10;7.68;;;;;;;21.84;96.60;100184.75;6174649;23;20021;-87
2023/08/13 06:55:33;;;;;;;10.27;7.10;;;;;;;21.83;96.86;100185.78;6125208;23;20020;-89
2023/08/13 06:58:00;;;;;;;11.45;7.07;;;;;;;21.86;96.77;100190.78;6173574;23;20453;-88
2023/08/13 07:00:27;;;;;;;12.98;7.55;;;;;;;21.91;96.63;100189.34;6147739;23;20461;-90
2023/08/13 07:03:06;;;;;;;15.50;8.82;;;;;;;21.93;97.00;100193.53;6152124;23;20021;-89
2023/08/13 07:05:33;;;;;;;11.95;7.90;;;;;;;21.97;96.77;100194.78;6149369;23;20358;-90
2023/08/13 07:08:00;;;;;;;11.32;7.55;;;;;;;22.00;96.88;100190.84;6151315;23;20017;-89
2023/08/13 07:10:28;;;;;;;12.10;8.50;;;;;;;22.03;96.94;100179.59;6125640;23;20084;-87
2023/08/13 07:12:55;;;;;;;11.45;7.88;;;;;;;22.02;96.93;100175.25;6148815;23;20036;-87
2023/08/13 07:15:21;;;;;;;12.45;7.80;;;;;;;22.06;97.06;100179.22;6170958;23;20383;-88
2023/08/13 07:17:48;;;;;;;16.92;7.72;;;;;;;22.06;97.01;100176.53;6124223;23;20021;-88
2023/08/13 07:20:15;;;;;;;9.98;6.53;;;;;;;22.06;96.73;100179.22;6148504;23;20059;-88
2023/08/13 07:22:43;;;;;;;11.82;8.07;;;;;;;22.07;96.95;100172.78;6098671;23;20028;-88
2023/08/13 07:25:14;;;;;;;11.00;7.25;;;;;;;22.05;96.85;100169.44;6123502;23;20021;-88
2023/08/13 07:27:42;;;;;;;10.00;7.10;;;;;;;22.05;97.01;100164.03;6175045;23;20032;-90
2023/08/13 07:30:10;;;;;;;9.68;7.35;;;;;;;22.04;97.58;100170.47;6126018;23;20043;-91
2023/08/13 07:32:40;;;;;;;12.18;7.47;;;;;;;22.07;97.24;100164.66;6149196;23;20032;-88
2023/08/13 07:35:08;;;;;;;9.02;7.13;;;;;;;22.06;97.59;100176.53;6150698;23;20450;-88
2023/08/13 07:37:34;;;;;;;10.02;6.75;;;;;;;22.10;97.85;100175.06;6149657;23;20075;-88
2023/08/13 07:40:07;;;;;;;11.45;6.65;;;;;;;22.14;97.77;100181.75;6150696;23;20021;-88
2023/08/13 07:42:34;;;;;;;11.05;6.65;;;;;;;22.20;97.67;100180.13;6123218;23;20112;-88
2023/08/13 07:45:05;;;;;;;11.48;7.05;;;;;;;22.21;97.74;100179.94;6125154;23;20021;-89
2023/08/13 07:47:33;;;;;;;11.70;7.88;;;;;;;22.28;97.93;100180.75;6123966;23;20043;-87
2023/08/13 07:50:00;;;;;;;10.30;6.88;;;;;;;22.30;97.68;100180.56;6147288;23;20064;-88
2023/08/13 07:52:27;;;;;;;9.57;6.55;;;;;;;22.29;97.42;100185.16;6122216;23;20437;-86
2023/08/13 07:55:36;;;;;;;10.75;6.53;;;;;;;22.26;98.06;100184.72;6094560;23;20341;-88
2023/08/13 07:58:55;;;;;;;9.60;6.00;;;;;;;22.33;97.77;100172.88;5809002;23;20028;-89
2023/08/13 08:01:21;;;;;;;10.68;6.78;;;;;;;22.37;97.46;100194.97;6023989;23;20022;-86
2023/08/13 08:03:48;;;;;;;8.10;5.05;;;;;;;22.42;97.33;100188.94;6173287;23;20040;-86
2023/08/13 08:06:15;;;;;;;8.30;5.30;;;;;;;22.47;97.00;100183.75;6148143;23;20039;-88
2023/08/13 08:08:42;;;;;;;7.82;5.72;;;;;;;22.50;97.33;100183.34;6148112;23;20445;-89
2023/08/13 08:11:08;;;;;;;11.50;5.50;;;;;;;22.56;97.34;100185.19;6173531;23;20084;-90
2023/08/13 08:13:36;;;;;;;7.95;5.65;;;;;;;22.64;97.59;100178.75;6123920;23;20091;-86
2023/08/13 08:16:03;;;;;;;7.25;5.32;;;;;;;22.69;97.73;100185.22;6123020;23;20021;-86
2023/08/13 08:18:29;;;;;;;12.18;4.68;;;;;;;22.76;96.57;100180.66;6124631;23;20513;-87
2023/08/13 08:20:56;;;;;;;5.20;4.15;;;;;;;22.75;96.38;100176.28;6148089;23;20025;-85
2023/08/13 08:23:23;;;;;;;5.32;4.07;;;;;;;22.80;96.26;100183.78;6148052;23;20021;-86
2023/08/13 08:25:50;;;;;;;6.13;3.60;;;;;;;22.76;96.61;100174.41;6124442;23;20091;-86
2023/08/13 08:28:17;;;;;;;7.40;3.88;;;;;;;22.76;96.04;100179.81;6148392;23;20024;-86
2023/08/13 08:30:44;;;;;;;5.88;3.80;;;;;;;22.76;96.09;100174.41;6145023;23;20563;-85
2023/08/13 08:33:12;;;;;;;7.50;4.63;;;;;;;22.81;96.50;100181.91;6147393;23;20021;-85
2023/08/13 08:35:39;;;;;;;5.68;3.65;;;;;;;22.80;96.17;100170.25;6145784;23;20111;-85
2023/08/13 08:38:06;;;;;;;7.85;4.45;;;;;;;22.88;96.20;100175.47;6146810;23;20121;-85
2023/08/13 08:40:33;;;;;;;6.55;3.28;;;;;;;22.90;95.66;100167.13;6171378;23;20079;-86
2023/08/13 08:42:59;;;;;;;3.70;3.38;;;;;;;22.91;95.49;100163.38;6146981;23;20029;-86
2023/08/13 08:45:26;;;;;;;6.68;3.30;;;;;;;22.93;94.98;100164.00;6146648;23;20021;-86
2023/08/13 08:47:54;;;;;;;7.45;3.50;;;;;;;22.99;94.88;100165.06;6123167;23;20406;-86
2023/08/13 08:50:21;;;;;;;3.53;3.22;;;;;;;23.04;94.65;100168.81;6146367;23;20457;-86
2023/08/13 08:52:49;;;;;;;5.70;3.05;;;;;;;23.09;95.00;100170.91;6147299;23;20036;-86
2023/08/13 08:55:16;;;;;;;5.88;3.13;;;;;;;23.15;95.29;100170.06;6147797;23;20302;-86
2023/08/13 08:57:43;;;;;;;5.57;3.20;;;;;;;23.18;94.43;100166.94;6147261;23;20079;-86
2023/08/13 09:00:10;;;;;;;3.50;3.20;;;;;;;23.16;93.38;100167.16;6173607;23;20049;-86
2023/08/13 09:02:41;;;;;;;5.45;3.33;;;;;;;23.17;92.82;100160.66;6147954;23;20013;-86
2023/08/13 09:05:08;;;;;;;3.72;3.33;;;;;;;23.19;93.10;100145.03;6172615;23;20017;-85
2023/08/13 09:07:35;;;;;;;3.83;2.95;;;;;;;23.20;93.02;100145.88;6149163;23;20070;-86
2023/08/13 09:10:05;;;;;;;4.60;2.75;;;;;;;23.22;92.08;100153.81;6124844;23;20029;-85
2023/08/13 09:12:36;;;;;;;3.67;2.75;;;;;;;23.23;92.33;100137.34;6123296;23;20037;-85
2023/08/13 09:15:05;;;;;;;5.68;2.55;;;;;;;23.26;91.40;100141.50;6123550;23;20585;-85
2023/08/13 09:17:31;;;;;;;3.53;2.67;;;;;;;23.25;91.70;100143.38;6148579;23;20079;-85
2023/08/13 09:20:00;;;;;;;3.70;2.70;;;;;;;23.30;91.47;100129.19;6123903;23;20028;-86
2023/08/13 09:22:32;;;;;;;6.00;2.85;;;;;;;23.33;90.08;100131.47;6123318;23;20033;-86
2023/08/13 09:25:02;;;;;;;3.28;2.83;;;;;;;23.34;90.81;100125.03;6148223;23;20031;-87
2023/08/13 09:27:32;;;;;;;3.08;2.72;;;;;;;23.36;88.94;100122.94;6124572;23;20412;-87
2023/08/13 09:29:59;;;;;;;3.40;2.50;;;;;;;23.37;88.11;100130.84;6175606;23;20037;-86
2023/08/13 09:32:30;;;;;;;4.25;2.55;;;;;;;23.37;87.26;100119.16;6122809;23;20021;-86
2023/08/13 09:34:57;;;;;;;3.50;2.55;;;;;;;23.38;87.02;100124.38;6125476;23;20029;-84
2023/08/13 09:37:25;;;;;;;4.55;2.65;;;;;;;23.42;86.71;100119.38;6126665;23;20019;-87
2023/08/13 09:39:52;;;;;;;3.17;2.55;;;;;;;23.44;87.14;100113.75;6175784;23;20028;-87
2023/08/13 09:42:19;;;;;;;3.28;2.97;;;;;;;23.48;88.04;100117.66;6150755;23;20350;-87
2023/08/13 09:44:46;;;;;;;4.82;2.50;;;;;;;23.51;87.87;100119.94;6175640;23;20024;-88
2023/08/13 09:47:17;;;;;;;8.13;3.15;;;;;;;23.54;87.01;100114.13;6149028;23;20032;-87
2023/08/13 09:49:45;;;;;;;6.00;3.33;;;;;;;23.56;87.07;100112.88;6123496;23;20031;-86
2023/08/13 09:52:14;;;;;;;5.38;2.70;;;;;;;23.59;86.84;100112.44;6122791;23;20029;-86
2023/08/13 09:55:09;;;;;;;2.88;2.38;;;;;;;23.61;86.81;100106.81;6147147;23;20021;-86
2023/08/13 09:57:37;;;;;;;5.90;2.47;;;;;;;23.65;84.37;100112.63;6157692;23;20021;-87
2023/08/13 10:00:07;;;;;;;4.20;2.35;;;;;;;23.67;85.05;100110.53;6172676;23;20041;-86
2023/08/13 10:02:38;;;;;;;5.07;2.38;;;;;;;23.67;85.00;100113.25;6100271;23;20025;-87
2023/08/13 10:05:06;;;;;;;2.28;2.08;;;;;;;23.69;84.02;100109.28;6114961;23;20453;-87
2023/08/13 10:07:34;;;;;;;3.35;2.53;;;;;;;23.66;83.72;100109.72;6147685;23;20119;-87
2023/08/13 10:10:04;;;;;;;3.00;2.17;;;;;;;23.63;83.67;100104.69;6146762;23;20460;-87
2023/08/13 10:12:35;;;;;;;5.05;2.38;;;;;;;23.61;82.76;100104.91;6148564;23;20041;-87
2023/08/13 10:15:02;;;;;;;2.65;2.15;;;;;;;23.58;82.46;100102.66;6147986;23;20413;-87
2023/08/13 10:17:29;;;;;;;5.95;2.53;;;;;;;23.59;82.40;100101.59;6124587;23;20025;-87
2023/08/13 10:19:56;;;;;;;3.05;2.50;;;;;;;23.62;82.62;100100.31;6147799;23;20416;-86
2023/08/13 10:22:39;;;;;;;3.30;2.13;;;;;;;23.62;82.89;100103.03;6147873;23;20025;-86
2023/08/13 10:25:07;;;;;;;4.20;2.30;;;;;;;23.64;83.31;100094.69;6147841;23;20041;-86
2023/08/13 10:27:36;;;;;;;3.83;2.20;;;;;;;23.70;83.12;100091.13;6148629;23;20691;-86
2023/08/13 10:30:09;;;;;;;2.35;1.95;;;;;;;23.73;82.89;100096.13;6122672;23;20073;-87
2023/08/13 10:32:47;;;;;;;;;;;;;;;23.63;83.38;100091.13;6147434;23;20084;-87
2023/08/13 10:35:24;;;;;;;2.28;2.08;;;;;;;23.74;82.00;100089.69;6148133;23;20330;-87
2023/08/13 10:37:54;;;;;;;1.98;1.75;;;;;;;23.82;81.33;100092.97;6172512;23;20397;-87
2023/08/13 10:40:21;;;;;;;2.95;2.30;;;;;;;23.85;80.47;100085.44;6173296;23;20029;-87
2023/08/13 10:42:49;;;;;;;3.95;1.92;;;;;;;23.85;80.93;100088.16;6170869;23;20025;-86
2023/08/13 10:45:19;;;;;;;3.42;2.22;;;;;;;23.83;80.42;100091.91;6149398;23;20056;-87
2023/08/13 10:47:48;;;;;;;4.03;2.10;;;;;;;23.81;81.32;100087.75;6147361;23;20021;-87
2023/08/13 10:50:18;;;;;;;4.05;2.45;;;;;;;23.81;80.93;100095.88;6172794;23;20027;-87
2023/08/13 10:52:52;;;;;;;3.10;2.10;;;;;;;23.80;80.72;100091.50;6171247;23;20025;-87
2023/08/13 10:55:23;;;;;;;2.95;2.10;;;;;;;23.82;80.97;100090.25;6172737;23;20032;-86
2023/08/13 10:57:51;;;;;;;2.42;1.95;;;;;;;23.86;81.19;100090.63;6172894;23;20091;-87
2023/08/13 11:00:21;;;;;;;3.53;1.90;;;;;;;23.89;81.62;100082.09;6172396;23;20099;-87
2023/08/13 11:02:53;;;;;;;2.83;2.20;;;;;;;23.89;81.70;100086.66;6122282;23;20048;-87
2023/08/13 11:05:21;;;;;;;6.03;2.20;;;;;;;23.90;80.50;100083.75;6148399;23;20032;-84
2023/08/13 11:07:48;;;;;;;5.75;1.75;;;;;;;23.91;79.51;100079.16;6172963;23;20033;-88
2023/08/13 11:10:19;;;;;;;5.30;2.30;;;;;;;23.90;78.67;100083.75;6171320;23;20032;-85
2023/08/13 11:12:47;;;;;;;3.58;2.50;;;;;;;23.96;80.46;100088.28;6122757;23;20387;-85
2023/08/13 11:15:15;;;;;;;4.53;2.53;;;;;;;23.99;80.21;100084.31;6135673;23;20032;-84
2023/08/13 11:17:49;;;;;;;2.33;2.13;;;;;;;23.98;78.73;100093.50;6148921;23;20017;-87
2023/08/13 11:20:18;;;;;;;2.20;2.00;;;;;;;24.01;78.17;100091.19;6124668;23;20025;-86
2023/08/13 11:22:46;;;;;;;3.53;2.13;;;;;;;23.98;78.48;100091.63;6147801;23;20089;-87
2023/08/13 11:25:14;;;;;;;3.85;1.90;;;;;;;23.98;78.14;100094.34;6124645;23;20021;-87
2023/08/13 11:27:41;;;;;;;3.65;2.38;;;;;;;23.99;78.34;100098.72;6124621;23;20024;-87